sensor_id;sensor_type;location;lat;lon;timestamp;pressure;altitude;pressure_sealevel;temperature;humidity
22580;BME280;11456;47.030;15.396;2023-02-11T00:01:28;99492.31;;;-4.49;77.53
22580;BME280;11456;47.030;15.396;2023-02-11T00:03:56;99487.13;;;-4.58;77.93
22580;BME280;11456;47.030;15.396;2023-02-11T00:06:23;99492.88;;;-4.21;77.55
22580;BME280;11456;47.030;15.396;2023-02-11T00:08:50;99481.59;;;-4.31;77.05
22580;BME280;11456;47.030;15.396;2023-02-11T00:11:17;99482.56;;;-4.41;76.97
22580;BME280;11456;47.030;15.396;2023-02-11T00:13:44;99486.88;;;-4.34;76.90
22580;BME280;11456;47.030;15.396;2023-02-11T00:16:12;99474.84;;;-4.59;76.20
22580;BME280;11456;47.030;15.396;2023-02-11T00:18:39;99471.47;;;-4.73;77.71
22580;BME280;11456;47.030;15.396;2023-02-11T00:21:08;99473.97;;;-4.60;78.23
22580;BME280;11456;47.030;15.396;2023-02-11T00:23:35;99471.09;;;-4.34;77.38
22580;BME280;11456;47.030;15.396;2023-02-11T00:26:02;99476.59;;;-4.58;77.30
22580;BME280;11456;47.030;15.396;2023-02-11T00:28:28;99480.34;;;-4.80;77.69
22580;BME280;11456;47.030;15.396;2023-02-11T00:30:55;99473.09;;;-4.57;77.58
22580;BME280;11456;47.030;15.396;2023-02-11T00:33:22;99477.66;;;-4.77;77.95
22580;BME280;11456;47.030;15.396;2023-02-11T00:35:49;99469.78;;;-4.74;76.83
22580;BME280;11456;47.030;15.396;2023-02-11T00:38:16;99465.34;;;-4.72;77.72
22580;BME280;11456;47.030;15.396;2023-02-11T00:40:43;99464.44;;;-4.68;77.32
22580;BME280;11456;47.030;15.396;2023-02-11T00:43:09;99459.00;;;-4.50;77.52
22580;BME280;11456;47.030;15.396;2023-02-11T00:45:35;99457.13;;;-4.39;76.69
22580;BME280;11456;47.030;15.396;2023-02-11T00:48:02;99454.56;;;-4.45;75.75
22580;BME280;11456;47.030;15.396;2023-02-11T00:50:28;99464.41;;;-4.65;76.70
22580;BME280;11456;47.030;15.396;2023-02-11T00:52:55;99451.13;;;-4.53;77.13
22580;BME280;11456;47.030;15.396;2023-02-11T00:55:21;99453.13;;;-4.75;77.33
22580;BME280;11456;47.030;15.396;2023-02-11T00:57:48;99449.44;;;-4.56;78.10
22580;BME280;11456;47.030;15.396;2023-02-11T01:00:15;99446.66;;;-4.42;77.09
22580;BME280;11456;47.030;15.396;2023-02-11T01:02:43;99443.97;;;-4.40;77.42
22580;BME280;11456;47.030;15.396;2023-02-11T01:05:09;99448.56;;;-4.58;77.50
22580;BME280;11456;47.030;15.396;2023-02-11T01:07:36;99444.44;;;-4.81;77.63
22580;BME280;11456;47.030;15.396;2023-02-11T01:10:02;99428.41;;;-4.56;79.06
22580;BME280;11456;47.030;15.396;2023-02-11T01:12:29;99425.97;;;-4.75;79.79
22580;BME280;11456;47.030;15.396;2023-02-11T01:14:56;99422.41;;;-4.68;80.02
22580;BME280;11456;47.030;15.396;2023-02-11T01:17:23;99428.28;;;-4.47;78.79
22580;BME280;11456;47.030;15.396;2023-02-11T01:19:50;99423.81;;;-4.40;77.94
22580;BME280;11456;47.030;15.396;2023-02-11T01:22:16;99418.81;;;-4.61;78.64
22580;BME280;11456;47.030;15.396;2023-02-11T01:24:43;99408.41;;;-4.73;78.93
22580;BME280;11456;47.030;15.396;2023-02-11T01:27:09;99408.09;;;-4.46;78.45
22580;BME280;11456;47.030;15.396;2023-02-11T01:29:36;99407.22;;;-4.45;77.87
22580;BME280;11456;47.030;15.396;2023-02-11T01:32:02;99396.63;;;-4.37;77.97
22580;BME280;11456;47.030;15.396;2023-02-11T01:34:29;99392.38;;;-4.49;78.14
22580;BME280;11456;47.030;15.396;2023-02-11T01:36:58;99389.03;;;-4.62;77.30
22580;BME280;11456;47.030;15.396;2023-02-11T01:39:27;99389.97;;;-4.67;78.14
22580;BME280;11456;47.030;15.396;2023-02-11T01:41:53;99393.63;;;-4.83;78.15
22580;BME280;11456;47.030;15.396;2023-02-11T01:44:28;99385.75;;;-4.83;79.46
22580;BME280;11456;47.030;15.396;2023-02-11T01:46:56;99377.03;;;-4.89;78.91
22580;BME280;11456;47.030;15.396;2023-02-11T01:49:26;99375.22;;;-4.83;79.76
22580;BME280;11456;47.030;15.396;2023-02-11T01:51:55;99376.06;;;-4.80;78.36
22580;BME280;11456;47.030;15.396;2023-02-11T01:54:23;99371.78;;;-4.89;79.62
22580;BME280;11456;47.030;15.396;2023-02-11T01:57:11;99373.56;;;-4.91;79.84
22580;BME280;11456;47.030;15.396;2023-02-11T02:02:55;99366.41;;;-4.76;79.15
22580;BME280;11456;47.030;15.396;2023-02-11T02:05:26;99366.41;;;-4.76;79.30
22580;BME280;11456;47.030;15.396;2023-02-11T02:10:25;99374.28;;;-4.75;78.52
22580;BME280;11456;47.030;15.396;2023-02-11T02:12:52;99373.41;;;-4.78;79.70
22580;BME280;11456;47.030;15.396;2023-02-11T02:15:24;99367.56;;;-5.05;79.88
22580;BME280;11456;47.030;15.396;2023-02-11T02:17:53;99367.41;;;-4.87;80.30
22580;BME280;11456;47.030;15.396;2023-02-11T02:25:46;99362.75;;;-4.63;78.68
22580;BME280;11456;47.030;15.396;2023-02-11T02:30:59;99356.22;;;-5.07;79.97
22580;BME280;11456;47.030;15.396;2023-02-11T02:36:27;99340.34;;;-4.98;79.78
22580;BME280;11456;47.030;15.396;2023-02-11T02:41:51;99338.34;;;-4.74;80.17
22580;BME280;11456;47.030;15.396;2023-02-11T02:44:19;99338.50;;;-4.90;78.84
22580;BME280;11456;47.030;15.396;2023-02-11T02:46:45;99336.53;;;-4.69;79.69
22580;BME280;11456;47.030;15.396;2023-02-11T02:49:12;99346.47;;;-4.97;79.18
22580;BME280;11456;47.030;15.396;2023-02-11T02:51:49;99334.13;;;-4.88;79.63
22580;BME280;11456;47.030;15.396;2023-02-11T03:02:34;99330.84;;;-5.09;80.43
22580;BME280;11456;47.030;15.396;2023-02-11T03:12:27;99331.13;;;-5.38;81.30
22580;BME280;11456;47.030;15.396;2023-02-11T03:14:56;99326.81;;;-5.48;80.65
22580;BME280;11456;47.030;15.396;2023-02-11T03:17:24;99322.38;;;-5.39;82.31
22580;BME280;11456;47.030;15.396;2023-02-11T03:19:51;99323.94;;;-5.21;81.88
22580;BME280;11456;47.030;15.396;2023-02-11T03:22:24;99321.19;;;-5.06;81.41
22580;BME280;11456;47.030;15.396;2023-02-11T03:24:52;99324.97;;;-5.37;80.30
22580;BME280;11456;47.030;15.396;2023-02-11T03:30:29;99321.69;;;-5.57;81.55
22580;BME280;11456;47.030;15.396;2023-02-11T03:33:00;99313.84;;;-5.63;81.80
22580;BME280;11456;47.030;15.396;2023-02-11T03:35:32;99316.72;;;-5.91;82.37
22580;BME280;11456;47.030;15.396;2023-02-11T03:38:04;99318.34;;;-5.81;83.24
22580;BME280;11456;47.030;15.396;2023-02-11T03:40:34;99316.81;;;-6.06;83.84
22580;BME280;11456;47.030;15.396;2023-02-11T03:43:02;99306.91;;;-5.71;83.32
22580;BME280;11456;47.030;15.396;2023-02-11T03:45:32;99298.28;;;-5.85;83.03
22580;BME280;11456;47.030;15.396;2023-02-11T03:48:23;99305.97;;;-5.63;83.71
22580;BME280;11456;47.030;15.396;2023-02-11T03:50:47;99300.44;;;-5.33;81.62
22580;BME280;11456;47.030;15.396;2023-02-11T03:53:16;99299.81;;;-5.61;81.77
22580;BME280;11456;47.030;15.396;2023-02-11T03:55:43;99291.22;;;-5.77;82.30
22580;BME280;11456;47.030;15.396;2023-02-11T03:58:10;99299.00;;;-5.68;83.13
22580;BME280;11456;47.030;15.396;2023-02-11T04:00:38;99299.03;;;-5.71;82.79
22580;BME280;11456;47.030;15.396;2023-02-11T04:03:05;99292.03;;;-5.72;81.90
22580;BME280;11456;47.030;15.396;2023-02-11T04:05:32;99297.25;;;-5.66;81.19
22580;BME280;11456;47.030;15.396;2023-02-11T04:07:58;99293.94;;;-5.87;82.57
22580;BME280;11456;47.030;15.396;2023-02-11T04:10:25;99284.19;;;-5.75;81.92
22580;BME280;11456;47.030;15.396;2023-02-11T04:12:51;99290.53;;;-6.00;82.54
22580;BME280;11456;47.030;15.396;2023-02-11T04:15:18;99289.66;;;-5.99;82.37
22580;BME280;11456;47.030;15.396;2023-02-11T04:17:45;99292.22;;;-5.90;81.96
22580;BME280;11456;47.030;15.396;2023-02-11T04:20:11;99285.34;;;-6.03;81.99
22580;BME280;11456;47.030;15.396;2023-02-11T04:22:38;99277.56;;;-6.20;82.45
22580;BME280;11456;47.030;15.396;2023-02-11T04:25:05;99283.63;;;-6.13;83.06
22580;BME280;11456;47.030;15.396;2023-02-11T04:27:31;99280.00;;;-5.94;83.42
22580;BME280;11456;47.030;15.396;2023-02-11T04:29:58;99279.44;;;-6.37;83.66
22580;BME280;11456;47.030;15.396;2023-02-11T04:32:24;99273.31;;;-6.39;85.09
22580;BME280;11456;47.030;15.396;2023-02-11T04:34:51;99271.34;;;-6.02;84.75
22580;BME280;11456;47.030;15.396;2023-02-11T04:37:17;99260.91;;;-6.14;83.62
22580;BME280;11456;47.030;15.396;2023-02-11T04:39:44;99267.81;;;-5.98;83.24
22580;BME280;11456;47.030;15.396;2023-02-11T04:42:10;99269.50;;;-5.94;82.65
22580;BME280;11456;47.030;15.396;2023-02-11T04:44:37;99270.56;;;-6.16;82.98
22580;BME280;11456;47.030;15.396;2023-02-11T04:47:03;99263.44;;;-5.99;83.46
22580;BME280;11456;47.030;15.396;2023-02-11T04:49:30;99252.03;;;-5.93;82.65
22580;BME280;11456;47.030;15.396;2023-02-11T04:51:57;99254.66;;;-5.95;82.60
22580;BME280;11456;47.030;15.396;2023-02-11T04:54:23;99249.50;;;-6.02;82.62
22580;BME280;11456;47.030;15.396;2023-02-11T04:56:50;99250.13;;;-5.79;82.37
22580;BME280;11456;47.030;15.396;2023-02-11T04:59:16;99242.25;;;-5.82;81.98
22580;BME280;11456;47.030;15.396;2023-02-11T05:01:43;99245.69;;;-5.76;82.07
22580;BME280;11456;47.030;15.396;2023-02-11T05:04:09;99243.94;;;-5.72;82.01
22580;BME280;11456;47.030;15.396;2023-02-11T05:06:37;99239.56;;;-5.75;82.74
22580;BME280;11456;47.030;15.396;2023-02-11T05:09:03;99237.78;;;-5.70;81.69
22580;BME280;11456;47.030;15.396;2023-02-11T05:11:30;99243.28;;;-5.94;82.40
22580;BME280;11456;47.030;15.396;2023-02-11T05:13:57;99234.38;;;-5.82;81.88
22580;BME280;11456;47.030;15.396;2023-02-11T05:16:23;99226.50;;;-5.79;81.23
22580;BME280;11456;47.030;15.396;2023-02-11T05:18:50;99225.38;;;-5.52;81.17
22580;BME280;11456;47.030;15.396;2023-02-11T05:21:18;99235.06;;;-5.60;81.64
22580;BME280;11456;47.030;15.396;2023-02-11T05:23:44;99240.25;;;-5.51;81.52
22580;BME280;11456;47.030;15.396;2023-02-11T05:26:11;99229.13;;;-5.81;81.87
22580;BME280;11456;47.030;15.396;2023-02-11T05:28:37;99224.97;;;-5.98;82.58
22580;BME280;11456;47.030;15.396;2023-02-11T05:31:04;99230.97;;;-5.89;82.72
22580;BME280;11456;47.030;15.396;2023-02-11T05:33:31;99233.81;;;-6.09;82.53
22580;BME280;11456;47.030;15.396;2023-02-11T05:35:58;99244.25;;;-6.04;83.07
22580;BME280;11456;47.030;15.396;2023-02-11T05:38:25;99243.28;;;-5.94;83.01
22580;BME280;11456;47.030;15.396;2023-02-11T05:40:52;99236.78;;;-5.56;81.88
22580;BME280;11456;47.030;15.396;2023-02-11T05:43:19;99237.94;;;-5.85;82.52
22580;BME280;11456;47.030;15.396;2023-02-11T05:45:45;99241.38;;;-5.77;83.06
22580;BME280;11456;47.030;15.396;2023-02-11T05:48:12;99231.09;;;-5.17;82.15
22580;BME280;11456;47.030;15.396;2023-02-11T05:50:38;99242.88;;;-5.54;81.14
22580;BME280;11456;47.030;15.396;2023-02-11T05:53:05;99236.88;;;-5.66;82.76
22580;BME280;11456;47.030;15.396;2023-02-11T05:55:32;99235.13;;;-5.65;83.24
22580;BME280;11456;47.030;15.396;2023-02-11T05:57:59;99239.47;;;-5.62;82.27
22580;BME280;11456;47.030;15.396;2023-02-11T06:00:26;99239.31;;;-5.44;80.74
22580;BME280;11456;47.030;15.396;2023-02-11T06:02:52;99230.81;;;-5.71;81.98
22580;BME280;11456;47.030;15.396;2023-02-11T06:05:19;99230.88;;;-5.77;83.13
22580;BME280;11456;47.030;15.396;2023-02-11T06:07:46;99235.69;;;-5.37;83.03
22580;BME280;11456;47.030;15.396;2023-02-11T06:10:12;99232.25;;;-5.39;81.55
22580;BME280;11456;47.030;15.396;2023-02-11T06:12:39;99231.63;;;-5.64;82.58
22580;BME280;11456;47.030;15.396;2023-02-11T06:15:05;99229.28;;;-5.10;81.95
22580;BME280;11456;47.030;15.396;2023-02-11T06:17:32;99224.09;;;-5.18;81.48
22580;BME280;11456;47.030;15.396;2023-02-11T06:19:59;99227.00;;;-5.42;82.63
22580;BME280;11456;47.030;15.396;2023-02-11T06:22:26;99221.19;;;-5.72;83.87
22580;BME280;11456;47.030;15.396;2023-02-11T06:24:52;99223.50;;;-5.41;82.92
22580;BME280;11456;47.030;15.396;2023-02-11T06:27:27;99217.25;;;-5.30;82.54
22580;BME280;11456;47.030;15.396;2023-02-11T06:29:53;99220.56;;;-5.14;83.35
22580;BME280;11456;47.030;15.396;2023-02-11T06:32:20;99211.44;;;-4.86;82.77
22580;BME280;11456;47.030;15.396;2023-02-11T06:35:06;99199.34;;;-3.81;81.39
22580;BME280;11456;47.030;15.396;2023-02-11T06:37:36;99192.75;;;-3.57;77.15
22580;BME280;11456;47.030;15.396;2023-02-11T06:40:03;99200.41;;;-3.45;76.71
22580;BME280;11456;47.030;15.396;2023-02-11T06:42:30;99206.66;;;-3.49;76.44
22580;BME280;11456;47.030;15.396;2023-02-11T06:44:56;99204.13;;;-3.53;77.18
22580;BME280;11456;47.030;15.396;2023-02-11T06:47:23;99210.59;;;-3.25;76.92
22580;BME280;11456;47.030;15.396;2023-02-11T06:49:50;99211.28;;;-3.15;76.87
22580;BME280;11456;47.030;15.396;2023-02-11T06:52:17;99206.19;;;-3.25;76.25
22580;BME280;11456;47.030;15.396;2023-02-11T06:54:43;99216.31;;;-3.48;78.50
22580;BME280;11456;47.030;15.396;2023-02-11T06:57:09;99216.69;;;-3.21;78.72
22580;BME280;11456;47.030;15.396;2023-02-11T06:59:36;99210.13;;;-3.47;80.93
22580;BME280;11456;47.030;15.396;2023-02-11T07:02:02;99212.50;;;-2.89;79.70
22580;BME280;11456;47.030;15.396;2023-02-11T07:04:29;99212.72;;;-2.58;79.09
22580;BME280;11456;47.030;15.396;2023-02-11T07:06:55;99210.84;;;-2.53;79.08
22580;BME280;11456;47.030;15.396;2023-02-11T07:09:22;99205.72;;;-2.60;79.48
22580;BME280;11456;47.030;15.396;2023-02-11T07:11:48;99214.22;;;-2.09;77.62
22580;BME280;11456;47.030;15.396;2023-02-11T07:14:15;99211.84;;;-1.49;75.80
22580;BME280;11456;47.030;15.396;2023-02-11T07:16:42;99210.97;;;-1.85;75.52
22580;BME280;11456;47.030;15.396;2023-02-11T07:19:08;99214.78;;;-1.96;75.88
22580;BME280;11456;47.030;15.396;2023-02-11T07:21:35;99209.16;;;-1.81;74.28
22580;BME280;11456;47.030;15.396;2023-02-11T07:24:04;99210.47;;;-1.65;74.84
22580;BME280;11456;47.030;15.396;2023-02-11T07:26:34;99213.16;;;-2.00;75.74
22580;BME280;11456;47.030;15.396;2023-02-11T07:29:00;99209.44;;;-1.93;76.90
22580;BME280;11456;47.030;15.396;2023-02-11T07:31:28;99216.88;;;-1.74;75.62
22580;BME280;11456;47.030;15.396;2023-02-11T07:33:55;99195.78;;;-1.41;74.61
22580;BME280;11456;47.030;15.396;2023-02-11T07:36:22;99208.88;;;-1.06;73.11
22580;BME280;11456;47.030;15.396;2023-02-11T07:38:49;99210.88;;;-1.46;73.85
22580;BME280;11456;47.030;15.396;2023-02-11T07:41:17;99216.28;;;-1.18;74.54
22580;BME280;11456;47.030;15.396;2023-02-11T07:43:44;99222.50;;;-0.89;72.99
22580;BME280;11456;47.030;15.396;2023-02-11T07:46:15;99206.09;;;-0.41;71.29
22580;BME280;11456;47.030;15.396;2023-02-11T07:48:42;99212.72;;;-0.56;71.29
22580;BME280;11456;47.030;15.396;2023-02-11T07:51:10;99204.78;;;-0.56;70.35
22580;BME280;11456;47.030;15.396;2023-02-11T07:53:37;99199.88;;;-0.69;70.74
22580;BME280;11456;47.030;15.396;2023-02-11T07:56:04;99194.16;;;-0.54;70.27
22580;BME280;11456;47.030;15.396;2023-02-11T07:58:31;99201.38;;;-0.59;69.62
22580;BME280;11456;47.030;15.396;2023-02-11T08:01:05;99204.16;;;-0.36;67.99
22580;BME280;11456;47.030;15.396;2023-02-11T08:03:32;99199.34;;;-0.23;67.95
22580;BME280;11456;47.030;15.396;2023-02-11T08:06:06;99194.16;;;0.02;67.99
22580;BME280;11456;47.030;15.396;2023-02-11T08:08:32;99192.59;;;-0.06;66.90
22580;BME280;11456;47.030;15.396;2023-02-11T08:11:06;99187.22;;;-0.03;67.43
22580;BME280;11456;47.030;15.396;2023-02-11T08:13:33;99193.22;;;0.03;67.34
22580;BME280;11456;47.030;15.396;2023-02-11T08:15:59;99192.06;;;0.11;66.90
22580;BME280;11456;47.030;15.396;2023-02-11T08:18:26;99202.31;;;0.22;67.12
22580;BME280;11456;47.030;15.396;2023-02-11T08:20:52;99207.31;;;0.31;67.30
22580;BME280;11456;47.030;15.396;2023-02-11T08:23:19;99203.09;;;0.25;67.06
22580;BME280;11456;47.030;15.396;2023-02-11T08:25:45;99207.66;;;0.96;65.24
22580;BME280;11456;47.030;15.396;2023-02-11T08:28:12;99209.84;;;1.56;63.63
22580;BME280;11456;47.030;15.396;2023-02-11T08:30:38;99206.75;;;1.67;63.04
22580;BME280;11456;47.030;15.396;2023-02-11T08:33:05;99199.63;;;2.13;61.77
22580;BME280;11456;47.030;15.396;2023-02-11T08:35:33;99188.88;;;1.94;60.00
22580;BME280;11456;47.030;15.396;2023-02-11T08:38:00;99192.13;;;1.34;62.05
22580;BME280;11456;47.030;15.396;2023-02-11T08:40:26;99198.94;;;1.64;62.55
22580;BME280;11456;47.030;15.396;2023-02-11T08:42:53;99197.09;;;2.52;61.99
22580;BME280;11456;47.030;15.396;2023-02-11T08:45:19;99208.38;;;1.93;59.76
22580;BME280;11456;47.030;15.396;2023-02-11T08:47:46;99211.25;;;2.10;59.79
22580;BME280;11456;47.030;15.396;2023-02-11T08:50:12;99191.38;;;2.40;58.60
22580;BME280;11456;47.030;15.396;2023-02-11T08:52:39;99200.19;;;2.83;57.57
22580;BME280;11456;47.030;15.396;2023-02-11T08:55:05;99203.38;;;3.11;59.60
22580;BME280;11456;47.030;15.396;2023-02-11T08:57:32;99186.28;;;3.36;57.33
22580;BME280;11456;47.030;15.396;2023-02-11T08:59:58;99195.66;;;2.65;57.74
22580;BME280;11456;47.030;15.396;2023-02-11T09:02:25;99197.63;;;2.39;58.96
22580;BME280;11456;47.030;15.396;2023-02-11T09:04:51;99188.88;;;2.78;59.19
22580;BME280;11456;47.030;15.396;2023-02-11T09:07:18;99195.13;;;2.97;57.89
22580;BME280;11456;47.030;15.396;2023-02-11T09:09:44;99195.38;;;2.91;57.49
22580;BME280;11456;47.030;15.396;2023-02-11T09:12:11;99188.06;;;2.76;58.83
22580;BME280;11456;47.030;15.396;2023-02-11T09:14:37;99185.63;;;2.71;58.49
22580;BME280;11456;47.030;15.396;2023-02-11T09:17:04;99183.41;;;2.40;60.67
22580;BME280;11456;47.030;15.396;2023-02-11T09:19:30;99181.81;;;2.36;59.71
22580;BME280;11456;47.030;15.396;2023-02-11T09:21:57;99180.06;;;2.35;60.34
22580;BME280;11456;47.030;15.396;2023-02-11T09:24:23;99180.34;;;2.29;60.54
22580;BME280;11456;47.030;15.396;2023-02-11T09:26:50;99182.13;;;2.07;60.32
22580;BME280;11456;47.030;15.396;2023-02-11T09:29:16;99175.03;;;2.08;61.15
22580;BME280;11456;47.030;15.396;2023-02-11T09:31:43;99177.75;;;3.28;58.75
22580;BME280;11456;47.030;15.396;2023-02-11T09:34:10;99174.03;;;3.13;57.39
22580;BME280;11456;47.030;15.396;2023-02-11T09:36:37;99166.47;;;3.60;56.94
22580;BME280;11456;47.030;15.396;2023-02-11T09:39:05;99158.81;;;4.26;54.14
22580;BME280;11456;47.030;15.396;2023-02-11T09:41:47;99154.28;;;4.45;54.66
22580;BME280;11456;47.030;15.396;2023-02-11T09:44:24;99151.50;;;3.76;54.53
22580;BME280;11456;47.030;15.396;2023-02-11T09:46:53;99144.63;;;4.08;55.26
22580;BME280;11456;47.030;15.396;2023-02-11T09:49:22;99153.72;;;3.67;56.56
22580;BME280;11456;47.030;15.396;2023-02-11T09:51:56;99147.13;;;3.38;56.43
22580;BME280;11456;47.030;15.396;2023-02-11T09:54:29;99151.00;;;3.31;56.97
22580;BME280;11456;47.030;15.396;2023-02-11T09:56:59;99145.69;;;3.49;56.84
22580;BME280;11456;47.030;15.396;2023-02-11T09:59:26;99138.69;;;3.47;57.00
22580;BME280;11456;47.030;15.396;2023-02-11T10:01:54;99139.91;;;3.77;56.25
22580;BME280;11456;47.030;15.396;2023-02-11T10:07:24;99125.25;;;4.22;53.47
22580;BME280;11456;47.030;15.396;2023-02-11T10:22:27;99111.13;;;6.90;49.69
22580;BME280;11456;47.030;15.396;2023-02-11T10:24:57;99108.34;;;6.91;46.31
22580;BME280;11456;47.030;15.396;2023-02-11T10:27:30;99100.09;;;6.80;47.62
22580;BME280;11456;47.030;15.396;2023-02-11T10:32:33;99103.13;;;6.00;48.47
22580;BME280;11456;47.030;15.396;2023-02-11T10:35:02;99082.50;;;6.76;48.46
22580;BME280;11456;47.030;15.396;2023-02-11T10:37:30;99084.38;;;7.59;46.86
22580;BME280;11456;47.030;15.396;2023-02-11T10:39:56;99081.78;;;7.57;45.86
22580;BME280;11456;47.030;15.396;2023-02-11T10:42:23;99066.22;;;6.79;46.70
22580;BME280;11456;47.030;15.396;2023-02-11T10:44:57;99068.00;;;7.90;45.78
22580;BME280;11456;47.030;15.396;2023-02-11T10:47:27;99063.25;;;8.35;44.02
22580;BME280;11456;47.030;15.396;2023-02-11T10:49:55;99051.88;;;8.44;43.00
22580;BME280;11456;47.030;15.396;2023-02-11T10:52:28;99052.50;;;8.35;43.39
22580;BME280;11456;47.030;15.396;2023-02-11T10:54:59;99056.13;;;9.84;41.69
22580;BME280;11456;47.030;15.396;2023-02-11T10:57:27;99044.66;;;10.87;39.87
22580;BME280;11456;47.030;15.396;2023-02-11T10:59:59;99041.59;;;12.13;37.17
22580;BME280;11456;47.030;15.396;2023-02-11T11:02:31;99040.59;;;13.08;35.35
22580;BME280;11456;47.030;15.396;2023-02-11T11:05:05;99034.25;;;10.94;37.45
22580;BME280;11456;47.030;15.396;2023-02-11T11:07:39;99028.19;;;11.90;36.67
22580;BME280;11456;47.030;15.396;2023-02-11T11:10:36;99028.47;;;11.54;35.97
22580;BME280;11456;47.030;15.396;2023-02-11T11:18:38;99034.56;;;10.56;36.30
22580;BME280;11456;47.030;15.396;2023-02-11T11:21:09;99027.03;;;10.13;36.76
22580;BME280;11456;47.030;15.396;2023-02-11T11:23:37;99024.09;;;9.92;37.70
22580;BME280;11456;47.030;15.396;2023-02-11T11:26:11;99021.47;;;9.80;38.62
22580;BME280;11456;47.030;15.396;2023-02-11T11:28:39;99019.16;;;10.69;35.75
22580;BME280;11456;47.030;15.396;2023-02-11T11:31:18;99013.41;;;9.07;38.18
22580;BME280;11456;47.030;15.396;2023-02-11T11:33:45;99003.56;;;8.44;39.66
22580;BME280;11456;47.030;15.396;2023-02-11T11:36:17;99000.59;;;7.82;41.67
22580;BME280;11456;47.030;15.396;2023-02-11T11:38:53;98979.41;;;8.44;40.06
22580;BME280;11456;47.030;15.396;2023-02-11T11:43:54;98988.50;;;8.79;39.86
22580;BME280;11456;47.030;15.396;2023-02-11T11:46:22;98987.66;;;8.41;39.26
22580;BME280;11456;47.030;15.396;2023-02-11T11:48:48;98979.97;;;9.11;38.47
22580;BME280;11456;47.030;15.396;2023-02-11T11:51:16;98971.19;;;8.71;38.04
22580;BME280;11456;47.030;15.396;2023-02-11T11:53:59;98967.91;;;8.42;38.29
22580;BME280;11456;47.030;15.396;2023-02-11T11:56:29;98971.38;;;9.42;38.93
22580;BME280;11456;47.030;15.396;2023-02-11T11:59:01;98959.84;;;9.77;37.56
22580;BME280;11456;47.030;15.396;2023-02-11T12:01:42;98952.59;;;9.66;38.27
22580;BME280;11456;47.030;15.396;2023-02-11T12:12:08;98946.84;;;12.16;31.94
22580;BME280;11456;47.030;15.396;2023-02-11T12:14:42;98949.09;;;11.99;33.08
22580;BME280;11456;47.030;15.396;2023-02-11T12:25:25;98920.81;;;12.15;31.72
22580;BME280;11456;47.030;15.396;2023-02-11T12:32:58;98908.91;;;11.85;31.91
22580;BME280;11456;47.030;15.396;2023-02-11T12:43:00;98886.63;;;10.64;33.85
22580;BME280;11456;47.030;15.396;2023-02-11T12:46:03;98881.22;;;10.64;33.89
22580;BME280;11456;47.030;15.396;2023-02-11T12:58:59;98863.41;;;8.88;37.38
22580;BME280;11456;47.030;15.396;2023-02-11T13:01:28;98853.28;;;9.28;36.81
22580;BME280;11456;47.030;15.396;2023-02-11T13:06:33;98849.47;;;10.90;34.76
22580;BME280;11456;47.030;15.396;2023-02-11T13:09:02;98850.47;;;11.95;32.69
22580;BME280;11456;47.030;15.396;2023-02-11T13:11:37;98845.72;;;10.59;33.38
22580;BME280;11456;47.030;15.396;2023-02-11T13:14:14;98834.75;;;9.82;35.00
22580;BME280;11456;47.030;15.396;2023-02-11T13:16:45;98836.47;;;9.48;35.50
22580;BME280;11456;47.030;15.396;2023-02-11T13:22:22;98823.63;;;9.41;35.25
22580;BME280;11456;47.030;15.396;2023-02-11T13:24:50;98824.38;;;9.19;35.38
22580;BME280;11456;47.030;15.396;2023-02-11T13:38:00;98825.59;;;11.28;33.72
22580;BME280;11456;47.030;15.396;2023-02-11T13:40:29;98824.78;;;11.80;32.35
22580;BME280;11456;47.030;15.396;2023-02-11T13:42:57;98834.94;;;10.81;33.90
22580;BME280;11456;47.030;15.396;2023-02-11T13:48:01;98829.00;;;9.41;34.79
22580;BME280;11456;47.030;15.396;2023-02-11T13:50:31;98821.59;;;9.20;34.61
22580;BME280;11456;47.030;15.396;2023-02-11T13:53:01;98816.59;;;9.27;34.50
22580;BME280;11456;47.030;15.396;2023-02-11T13:55:28;98827.47;;;9.02;34.37
22580;BME280;11456;47.030;15.396;2023-02-11T14:16:33;98829.63;;;8.97;31.33
22580;BME280;11456;47.030;15.396;2023-02-11T14:19:04;98832.34;;;9.55;30.75
22580;BME280;11456;47.030;15.396;2023-02-11T14:21:37;98838.44;;;9.46;31.16
22580;BME280;11456;47.030;15.396;2023-02-11T14:26:51;98834.72;;;10.39;30.58
22580;BME280;11456;47.030;15.396;2023-02-11T14:29:30;98845.19;;;9.98;29.67
22580;BME280;11456;47.030;15.396;2023-02-11T14:43:20;98826.63;;;9.36;29.19
22580;BME280;11456;47.030;15.396;2023-02-11T14:45:50;98827.00;;;8.84;30.03
22580;BME280;11456;47.030;15.396;2023-02-11T14:48:19;98817.06;;;9.21;29.31
22580;BME280;11456;47.030;15.396;2023-02-11T14:50:49;98826.00;;;9.68;28.32
22580;BME280;11456;47.030;15.396;2023-02-11T14:53:18;98819.47;;;9.83;27.92
22580;BME280;11456;47.030;15.396;2023-02-11T14:55:47;98822.91;;;10.07;27.25
22580;BME280;11456;47.030;15.396;2023-02-11T14:58:26;98826.00;;;10.25;28.37
22580;BME280;11456;47.030;15.396;2023-02-11T15:00:54;98821.19;;;10.06;29.72
22580;BME280;11456;47.030;15.396;2023-02-11T15:03:34;98825.13;;;10.02;29.31
22580;BME280;11456;47.030;15.396;2023-02-11T15:06:06;98811.22;;;10.30;29.22
22580;BME280;11456;47.030;15.396;2023-02-11T15:08:39;98816.50;;;9.75;30.51
22580;BME280;11456;47.030;15.396;2023-02-11T15:11:09;98818.31;;;9.28;32.19
22580;BME280;11456;47.030;15.396;2023-02-11T15:13:37;98821.25;;;9.36;31.87
22580;BME280;11456;47.030;15.396;2023-02-11T15:16:05;98834.59;;;8.90;32.23
22580;BME280;11456;47.030;15.396;2023-02-11T15:18:36;98828.88;;;8.58;32.86
22580;BME280;11456;47.030;15.396;2023-02-11T15:21:04;98827.75;;;8.50;33.55
22580;BME280;11456;47.030;15.396;2023-02-11T15:23:31;98818.94;;;8.22;34.33
22580;BME280;11456;47.030;15.396;2023-02-11T15:25:57;98813.91;;;8.43;34.28
22580;BME280;11456;47.030;15.396;2023-02-11T15:28:29;98820.88;;;8.33;34.58
22580;BME280;11456;47.030;15.396;2023-02-11T15:33:23;98822.41;;;8.12;36.07
22580;BME280;11456;47.030;15.396;2023-02-11T15:35:51;98824.41;;;8.21;36.15
22580;BME280;11456;47.030;15.396;2023-02-11T15:38:17;98824.22;;;8.24;36.26